createdAt,value
2019-01-21T00:01:33.050Z,33.63
2019-01-21T00:04:02.624Z,33.47
2019-01-21T00:06:32.131Z,34.03
2019-01-21T00:09:01.659Z,33.00
2019-01-21T00:11:31.194Z,32.47
2019-01-21T00:14:02.298Z,34.00
2019-01-21T00:16:32.140Z,33.57
2019-01-21T00:19:01.672Z,32.90
2019-01-21T00:21:31.525Z,34.47
2019-01-21T00:24:01.636Z,34.10
2019-01-21T00:26:31.587Z,33.88
2019-01-21T00:29:01.124Z,34.57
2019-01-21T00:31:30.660Z,33.13
2019-01-21T00:34:00.221Z,34.10
2019-01-21T00:36:29.727Z,33.97
2019-01-21T00:39:00.018Z,33.70
2019-01-21T00:41:29.657Z,33.37
2019-01-21T00:43:59.153Z,34.87
2019-01-21T00:46:28.739Z,33.03
2019-01-21T00:48:58.245Z,34.25
2019-01-21T00:51:28.401Z,33.73
2019-01-21T00:53:57.954Z,32.63
2019-01-21T00:56:27.502Z,34.43
2019-01-21T00:58:56.986Z,32.77
2019-01-21T01:01:26.508Z,34.23
2019-01-21T01:03:56.837Z,33.15
2019-01-21T01:06:26.349Z,33.23
2019-01-21T01:08:55.919Z,34.37
2019-01-21T01:11:25.447Z,33.90
2019-01-21T01:13:54.974Z,34.90
2019-01-21T01:16:25.244Z,34.65
2019-01-21T01:18:54.770Z,34.17
2019-01-21T01:21:24.327Z,34.17
2019-01-21T01:23:53.828Z,34.95
2019-01-21T01:26:23.368Z,34.63
2019-01-21T01:28:53.715Z,35.48
2019-01-21T01:31:23.241Z,34.00
2019-01-21T01:33:52.771Z,35.90
2019-01-21T01:36:22.292Z,34.03
2019-01-21T01:38:51.793Z,34.90
2019-01-21T01:41:22.268Z,35.48
2019-01-21T01:43:51.792Z,35.03
2019-01-21T01:46:21.402Z,35.67
2019-01-21T01:48:50.917Z,34.70
2019-01-21T01:51:20.448Z,34.17
2019-01-21T01:53:50.732Z,33.92
2019-01-21T01:56:20.309Z,33.10
2019-01-21T01:58:49.878Z,34.03
2019-01-21T02:01:19.459Z,33.93
2019-01-21T02:03:48.949Z,35.33
2019-01-21T02:06:19.274Z,34.90
2019-01-21T02:08:48.803Z,34.03
2019-01-21T02:11:18.318Z,35.00
2019-01-21T02:13:47.841Z,36.13
2019-01-21T02:16:17.561Z,35.37
2019-01-21T02:18:47.656Z,36.53
2019-01-21T02:21:57.398Z,36.23
2019-01-21T02:24:41.238Z,34.90
2019-01-21T02:27:13.783Z,35.30
2019-01-21T02:30:05.225Z,36.93
2019-01-21T02:32:47.975Z,38.13
2019-01-21T02:35:27.922Z,37.33
2019-01-21T02:38:10.636Z,37.50
2019-01-21T02:40:47.555Z,38.53
2019-01-21T02:43:30.828Z,38.27
2019-01-21T02:46:46.974Z,37.47
2019-01-21T02:49:55.761Z,38.17
2019-01-21T02:52:38.580Z,37.37
2019-01-21T02:55:32.895Z,37.75
2019-01-21T02:58:35.479Z,38.08
2019-01-21T03:01:18.558Z,38.23
2019-01-21T03:03:52.815Z,38.27
2019-01-21T03:06:38.517Z,35.87
2019-01-21T03:09:33.122Z,38.57
2019-01-21T03:12:15.901Z,36.83
2019-01-21T03:15:01.951Z,38.80
2019-01-21T03:17:50.221Z,36.77
2019-01-21T03:21:04.629Z,34.93
2019-01-21T03:23:48.660Z,35.60
2019-01-21T03:26:43.521Z,35.37
2019-01-21T03:29:32.685Z,36.07
2019-01-21T03:32:29.154Z,35.83
2019-01-21T03:35:40.579Z,34.67
2019-01-21T03:38:20.154Z,36.47
2019-01-21T03:41:03.234Z,35.37
2019-01-21T03:43:53.621Z,34.47
2019-01-21T03:46:52.594Z,37.17
2019-01-21T03:49:45.834Z,35.47
2019-01-21T03:52:49.239Z,36.13
2019-01-21T03:55:19.373Z,37.00
2019-01-21T03:58:27.541Z,37.40
2019-01-21T04:01:18.904Z,34.58
2019-01-21T04:04:16.895Z,35.30
2019-01-21T04:06:54.145Z,35.27
2019-01-21T04:09:42.951Z,35.40
2019-01-21T04:12:38.348Z,33.08
2019-01-21T04:15:27.566Z,35.27
2019-01-21T04:18:31.912Z,33.63
2019-01-21T04:21:41.688Z,34.23
2019-01-21T04:24:53.132Z,33.17
2019-01-21T04:27:39.183Z,34.67
2019-01-21T04:30:31.089Z,35.17
2019-01-21T04:33:36.706Z,35.43
2019-01-21T04:36:46.498Z,35.47
2019-01-21T04:39:26.429Z,34.70
2019-01-21T04:42:06.357Z,35.10
2019-01-21T04:44:57.507Z,35.73
2019-01-21T04:47:57.853Z,34.67
2019-01-21T04:51:03.546Z,36.23
2019-01-21T04:53:52.456Z,34.83
2019-01-21T04:57:03.459Z,36.20
2019-01-21T04:59:55.404Z,35.50
2019-01-21T05:02:38.151Z,36.50
2019-01-21T05:05:40.500Z,37.83
2019-01-21T05:08:50.483Z,38.50
2019-01-21T05:11:24.745Z,38.63
2019-01-21T05:14:19.980Z,38.90
2019-01-21T05:17:11.790Z,38.43
2019-01-21T05:20:21.746Z,39.90
2019-01-21T05:23:49.294Z,39.00
2019-01-21T05:27:10.713Z,37.08
2019-01-21T05:29:44.908Z,37.53
2019-01-21T05:32:48.433Z,37.83
2019-01-21T05:35:25.848Z,38.20
2019-01-21T05:38:17.825Z,36.57
2019-01-21T05:41:06.201Z,36.33
2019-01-21T05:44:14.139Z,38.53
2019-01-21T05:47:13.624Z,37.70
2019-01-21T05:50:08.455Z,38.67
2019-01-21T05:53:13.769Z,39.83
2019-01-21T05:56:19.172Z,37.73
2019-01-21T05:59:14.335Z,34.80
2019-01-21T06:02:23.867Z,36.13
2019-01-21T06:05:12.895Z,36.97
2019-01-21T06:08:34.360Z,36.00
2019-01-21T06:11:44.086Z,36.43
2019-01-21T06:14:44.794Z,36.80
2019-01-21T06:18:12.343Z,38.77
2019-01-21T06:21:19.648Z,38.00
2019-01-21T06:24:47.171Z,37.47
2019-01-21T06:27:33.456Z,37.40
2019-01-21T06:30:24.393Z,38.60
2019-01-21T06:33:24.866Z,38.17
2019-01-21T06:35:59.050Z,39.70
2019-01-21T06:38:49.429Z,40.23
2019-01-21T06:41:38.063Z,40.53
2019-01-21T06:44:33.181Z,39.63
2019-01-21T06:47:30.592Z,39.63
2019-01-21T06:50:13.603Z,39.27
2019-01-21T06:53:12.961Z,38.47
2019-01-21T06:56:10.784Z,36.67
2019-01-21T06:59:25.080Z,37.53
2019-01-21T07:02:23.107Z,38.30
2019-01-21T07:05:09.362Z,36.10
2019-01-21T07:08:18.476Z,36.70
2019-01-21T07:11:10.250Z,34.90
2019-01-21T07:13:59.142Z,34.93
2019-01-21T07:16:36.281Z,35.97
2019-01-21T07:19:33.545Z,37.20
2019-01-21T07:22:13.599Z,38.57
2019-01-21T07:25:41.137Z,36.73
2019-01-21T07:28:29.983Z,39.27
2019-01-21T07:31:24.836Z,39.00
2019-01-21T07:34:13.415Z,38.77
2019-01-21T07:37:12.862Z,41.37
2019-01-21T07:40:01.299Z,35.73
2019-01-21T07:43:08.107Z,37.00
2019-01-21T07:45:58.423Z,35.17
2019-01-21T07:48:51.630Z,37.27
2019-01-21T07:51:37.523Z,37.98
2019-01-21T07:54:31.026Z,38.57
2019-01-21T07:57:33.648Z,38.23
2019-01-21T08:00:37.480Z,38.83
2019-01-21T08:03:44.568Z,38.13
2019-01-21T08:06:27.264Z,39.50
2019-01-21T08:09:07.516Z,40.17
2019-01-21T08:12:03.746Z,38.87
2019-01-21T08:14:52.760Z,37.90
2019-01-21T08:17:46.009Z,39.40
2019-01-21T08:20:23.181Z,38.50
2019-01-21T08:23:09.358Z,39.87
2019-01-21T08:26:04.108Z,40.60
2019-01-21T08:28:46.783Z,40.70
2019-01-21T08:31:32.821Z,39.83
2019-01-21T08:34:35.456Z,40.40
2019-01-21T08:37:43.941Z,41.50
2019-01-21T08:40:40.274Z,40.10
2019-01-21T08:43:29.261Z,41.17
2019-01-21T08:46:24.302Z,41.77
2019-01-21T08:49:13.364Z,40.67
2019-01-21T08:52:16.786Z,41.10
2019-01-21T08:55:28.421Z,39.40
2019-01-21T08:58:36.989Z,39.90
2019-01-21T09:01:26.017Z,41.53
2019-01-21T09:04:02.889Z,46.20
2019-01-21T09:06:48.894Z,49.30
2019-01-21T09:09:28.745Z,40.12
2019-01-21T09:12:14.780Z,42.33
2019-01-21T09:15:06.823Z,39.83
2019-01-21T09:17:55.736Z,39.50
2019-01-21T09:20:56.179Z,38.53
2019-01-21T09:23:39.033Z,40.00
2019-01-21T09:26:21.909Z,39.70
2019-01-21T09:29:05.025Z,40.15
2019-01-21T09:31:54.260Z,38.43
2019-01-21T09:34:50.646Z,38.17
2019-01-21T09:37:45.025Z,37.88
2019-01-21T09:40:30.793Z,38.33
2019-01-21T09:43:13.911Z,39.57
2019-01-21T09:46:16.255Z,39.73
2019-01-21T09:48:44.162Z,37.42
2019-01-21T09:51:15.081Z,39.15
2019-01-21T09:53:47.820Z,39.90
2019-01-21T09:56:18.292Z,40.07
2019-01-21T09:58:49.254Z,38.13
2019-01-21T10:01:19.895Z,40.60
2019-01-21T10:03:50.473Z,37.77
2019-01-21T10:06:24.011Z,36.63
2019-01-21T10:09:24.916Z,41.28
2019-01-21T10:12:38.355Z,39.38
2019-01-21T10:15:12.526Z,40.17
2019-01-21T10:17:46.699Z,38.80
2019-01-21T10:21:15.078Z,39.53
2019-01-21T10:23:58.214Z,37.60
2019-01-21T10:26:53.284Z,37.60
2019-01-21T10:29:36.239Z,38.20
2019-01-21T10:32:26.690Z,37.90
2019-01-21T10:35:24.710Z,38.47
2019-01-21T10:38:17.624Z,37.40
2019-01-21T10:41:00.565Z,39.17
2019-01-21T10:44:19.627Z,39.67
2019-01-21T10:47:08.434Z,40.13
2019-01-21T10:49:57.552Z,38.07
2019-01-21T10:52:50.288Z,38.33
2019-01-21T10:55:55.570Z,37.93
2019-01-21T10:58:53.120Z,39.05
2019-01-21T11:01:56.276Z,42.13
2019-01-21T11:04:58.316Z,37.30
2019-01-21T11:08:00.586Z,39.60
2019-01-21T11:10:40.265Z,37.78
2019-01-21T11:13:33.561Z,36.73
2019-01-21T11:16:39.269Z,37.93
2019-01-21T11:19:30.977Z,37.23
2019-01-21T11:22:05.150Z,36.07
2019-01-21T11:24:51.037Z,40.90
2019-01-21T11:27:30.999Z,36.40
2019-01-21T11:30:33.633Z,35.90
2019-01-21T11:33:28.036Z,35.47
2019-01-21T11:36:24.739Z,36.37
2019-01-21T11:39:13.857Z,38.23
2019-01-21T11:42:14.280Z,36.57
2019-01-21T11:45:41.833Z,36.70
2019-01-21T11:48:39.643Z,35.38
2019-01-21T11:51:42.075Z,35.77
2019-01-21T11:54:38.488Z,37.57
2019-01-21T11:57:49.901Z,39.33
2019-01-21T12:00:24.195Z,35.63
2019-01-21T12:03:23.878Z,35.10
2019-01-21T12:05:57.248Z,34.48
2019-01-21T12:08:55.266Z,35.67
2019-01-21T12:11:44.355Z,35.03
2019-01-21T12:14:54.152Z,33.23
2019-01-21T12:17:53.504Z,36.20
2019-01-21T12:20:27.752Z,34.63
2019-01-21T12:23:19.507Z,35.97
2019-01-21T12:25:56.262Z,34.70
2019-01-21T12:28:48.567Z,33.83
2019-01-21T12:31:43.262Z,33.40
2019-01-21T12:34:35.097Z,33.80
2019-01-21T12:37:09.293Z,31.80
2019-01-21T12:39:46.108Z,33.27
2019-01-21T12:42:23.012Z,35.37
2019-01-21T12:45:21.156Z,31.53
2019-01-21T12:48:09.878Z,31.50
2019-01-21T12:51:12.129Z,30.73
2019-01-21T12:54:39.677Z,29.97
2019-01-21T12:57:46.714Z,32.43
2019-01-21T13:00:29.315Z,31.53
2019-01-21T13:03:20.574Z,34.10
2019-01-21T13:06:00.590Z,33.83
2019-01-21T13:08:55.464Z,31.03
2019-01-21T13:11:35.248Z,31.83
2019-01-21T13:14:31.509Z,31.30
2019-01-21T13:17:05.741Z,30.88
2019-01-21T13:20:00.269Z,31.95
2019-01-21T13:22:51.604Z,30.63
2019-01-21T13:25:56.342Z,31.50
2019-01-21T13:28:42.517Z,29.27
2019-01-21T13:31:28.585Z,29.37
2019-01-21T13:34:44.600Z,30.43
2019-01-21T13:37:54.389Z,32.03
2019-01-21T13:41:10.379Z,30.57
2019-01-21T13:44:08.389Z,31.80
2019-01-21T13:46:59.927Z,33.20
2019-01-21T13:49:51.801Z,34.60
2019-01-21T13:52:37.410Z,33.30
2019-01-21T13:55:29.461Z,34.03
2019-01-21T13:58:18.405Z,34.07
2019-01-21T14:01:10.282Z,34.87
2019-01-21T14:04:06.039Z,34.87
2019-01-21T14:06:58.264Z,34.00
2019-01-21T14:10:05.256Z,32.45
2019-01-21T14:12:57.226Z,35.03
2019-01-21T14:15:36.478Z,34.63
2019-01-21T14:18:27.553Z,35.65
2019-01-21T14:21:22.353Z,34.83
2019-01-21T14:24:17.512Z,35.73
2019-01-21T14:27:00.262Z,34.57
2019-01-21T14:29:55.022Z,34.43
2019-01-21T14:32:47.319Z,35.63
2019-01-21T14:35:29.759Z,35.60
2019-01-21T14:38:09.656Z,36.00
2019-01-21T14:41:10.707Z,34.97
2019-01-21T14:44:21.774Z,34.60
2019-01-21T14:47:04.784Z,33.97
2019-01-21T14:49:50.986Z,34.20
2019-01-21T14:52:33.836Z,34.60
2019-01-21T14:55:28.853Z,35.48
2019-01-21T14:58:05.973Z,34.73
2019-01-21T15:00:48.579Z,35.23
2019-01-21T15:03:58.395Z,34.78
2019-01-21T15:07:04.315Z,34.97
2019-01-21T15:10:17.096Z,37.93
2019-01-21T15:13:05.761Z,35.97
2019-01-21T15:15:51.484Z,35.87
2019-01-21T15:18:46.386Z,36.70
2019-01-21T15:21:35.110Z,37.10
2019-01-21T15:24:23.392Z,36.73
2019-01-21T15:27:00.139Z,36.30
2019-01-21T15:29:40.063Z,38.60
2019-01-21T15:32:25.963Z,37.33
2019-01-21T15:35:20.495Z,36.63
2019-01-21T15:38:36.238Z,36.87
2019-01-21T15:41:32.727Z,36.67
2019-01-21T15:44:09.733Z,36.03
2019-01-21T15:46:52.795Z,36.33
2019-01-21T15:49:35.932Z,36.90
2019-01-21T15:52:24.886Z,37.20
2019-01-21T15:55:25.611Z,37.13
2019-01-21T15:58:08.460Z,36.27
2019-01-21T16:00:57.153Z,36.73
2019-01-21T16:04:01.336Z,36.25
2019-01-21T16:06:59.952Z,36.33
2019-01-21T16:09:36.717Z,38.67
2019-01-21T16:12:28.538Z,36.47
2019-01-21T16:15:40.289Z,37.00
2019-01-21T16:18:29.280Z,36.67
2019-01-21T16:21:39.661Z,38.23
2019-01-21T16:24:28.520Z,37.30
2019-01-21T16:27:10.918Z,36.00
2019-01-21T16:29:53.887Z,37.27
2019-01-21T16:32:25.948Z,38.10
2019-01-21T16:35:21.048Z,37.03
2019-01-21T16:38:00.820Z,37.60
2019-01-21T16:41:02.485Z,39.23
2019-01-21T16:43:44.658Z,39.97
2019-01-21T16:46:14.181Z,39.65
2019-01-21T16:48:43.788Z,37.43
2019-01-21T16:51:19.999Z,35.97
2019-01-21T16:53:44.625Z,37.17
2019-01-21T16:56:14.300Z,39.47
2019-01-21T16:58:44.951Z,39.53
2019-01-21T17:01:14.450Z,38.73
2019-01-21T17:03:44.077Z,39.80
2019-01-21T17:06:13.808Z,41.33
2019-01-21T17:08:43.309Z,40.10
2019-01-21T17:11:13.227Z,40.12
2019-01-21T17:13:42.821Z,39.93
2019-01-21T17:16:12.320Z,39.33
2019-01-21T17:18:41.944Z,41.23
2019-01-21T17:21:11.525Z,40.87
2019-01-21T17:23:41.739Z,45.23
2019-01-21T17:26:11.283Z,49.70
2019-01-21T17:28:40.989Z,42.80
2019-01-21T17:31:10.550Z,42.67
2019-01-21T17:33:40.081Z,40.60
2019-01-21T17:36:29.575Z,39.70
2019-01-21T17:38:59.125Z,39.48
2019-01-21T17:41:28.793Z,40.07
2019-01-21T17:43:58.336Z,39.37
2019-01-21T17:46:27.892Z,39.90
2019-01-21T17:49:16.772Z,40.43
2019-01-21T17:52:05.613Z,40.10
2019-01-21T17:54:46.187Z,38.33
2019-01-21T17:57:35.026Z,39.03
2019-01-21T18:00:08.036Z,39.73
2019-01-21T18:02:37.575Z,40.00
2019-01-21T18:05:08.166Z,41.50
2019-01-21T18:07:37.665Z,39.47
2019-01-21T18:10:11.951Z,40.33
2019-01-21T18:12:41.619Z,39.63
2019-01-21T18:15:13.245Z,39.42
2019-01-21T18:18:02.136Z,39.33
2019-01-21T18:20:32.690Z,40.60
2019-01-21T18:23:02.337Z,40.27
2019-01-21T18:25:33.059Z,39.57
2019-01-21T18:28:02.629Z,39.07
2019-01-21T18:30:32.327Z,40.00
2019-01-21T18:33:01.892Z,40.57
2019-01-21T18:35:31.496Z,38.70
2019-01-21T18:38:02.532Z,38.03
2019-01-21T18:40:32.044Z,39.30
2019-01-21T18:43:01.625Z,38.27
2019-01-21T18:45:31.654Z,37.87
2019-01-21T18:48:01.165Z,35.87
2019-01-21T18:50:30.701Z,37.27
2019-01-21T18:53:00.781Z,37.23
2019-01-21T18:55:30.323Z,37.30
2019-01-21T18:57:59.926Z,38.53
2019-01-21T19:00:29.560Z,37.97
2019-01-21T19:02:59.137Z,38.53
2019-01-21T19:05:29.188Z,39.40
2019-01-21T19:07:58.743Z,38.90
2019-01-21T19:10:28.326Z,37.53
2019-01-21T19:12:57.798Z,35.63
2019-01-21T19:15:30.761Z,36.27
2019-01-21T19:18:00.261Z,36.07
2019-01-21T19:20:30.085Z,36.47
2019-01-21T19:22:59.683Z,37.80
2019-01-21T19:25:40.212Z,36.87
2019-01-21T19:28:41.588Z,37.43
2019-01-21T19:31:11.167Z,39.83
2019-01-21T19:33:40.703Z,40.00
2019-01-21T19:36:10.237Z,40.78
2019-01-21T19:38:39.730Z,38.07
2019-01-21T19:41:09.338Z,38.43
2019-01-21T19:43:38.831Z,39.97
2019-01-21T19:46:08.415Z,40.60
2019-01-21T19:48:37.988Z,39.10
2019-01-21T19:51:07.576Z,39.67
2019-01-21T19:53:37.063Z,39.97
2019-01-21T19:56:06.864Z,39.63
2019-01-21T19:58:36.367Z,39.53
2019-01-21T20:01:05.990Z,40.37
2019-01-21T20:03:36.192Z,40.43
2019-01-21T20:06:25.521Z,41.57
2019-01-21T20:09:26.963Z,39.80
2019-01-21T20:11:56.570Z,37.70
2019-01-21T20:14:45.428Z,39.05
2019-01-21T20:17:16.211Z,37.28
2019-01-21T20:19:45.847Z,38.27
2019-01-21T20:22:15.398Z,39.57
2019-01-21T20:24:44.901Z,37.70
2019-01-21T20:27:14.402Z,37.77
2019-01-21T20:29:45.309Z,37.15
2019-01-21T20:32:14.950Z,39.17
2019-01-21T20:34:44.510Z,38.67
2019-01-21T20:37:14.058Z,39.83
2019-01-21T20:39:43.626Z,40.20
2019-01-21T20:42:13.978Z,40.83
2019-01-21T20:44:43.534Z,41.23
2019-01-21T20:47:13.067Z,40.57
2019-01-21T20:49:42.572Z,41.10
2019-01-21T20:52:31.459Z,40.67
2019-01-21T20:55:20.642Z,43.43
2019-01-21T20:57:50.261Z,42.13
2019-01-21T21:00:26.059Z,41.77
2019-01-21T21:02:56.614Z,46.67
2019-01-21T21:05:26.226Z,41.33
2019-01-21T21:07:55.905Z,41.50
2019-01-21T21:10:25.612Z,39.83
2019-01-21T21:12:55.277Z,42.27
2019-01-21T21:15:28.876Z,39.57
2019-01-21T21:17:58.374Z,40.27
2019-01-21T21:20:27.966Z,39.07
2019-01-21T21:22:57.617Z,38.30
2019-01-21T21:28:47.279Z,40.27
2019-01-21T21:31:16.825Z,40.97
2019-01-21T21:33:46.418Z,40.57
2019-01-21T21:36:15.967Z,41.00
2019-01-21T21:38:47.088Z,39.73
2019-01-21T21:41:16.662Z,39.43
2019-01-21T21:43:46.166Z,41.30
2019-01-21T21:46:15.743Z,40.87
2019-01-21T21:48:45.274Z,40.27
2019-01-21T21:51:15.836Z,39.08
2019-01-21T21:53:45.329Z,40.07
2019-01-21T21:56:14.881Z,38.87
2019-01-21T21:58:44.381Z,43.27
2019-01-21T22:01:13.925Z,42.63
2019-01-21T22:03:44.111Z,41.28
2019-01-21T22:06:13.745Z,38.37
2019-01-21T22:08:43.262Z,38.00
2019-01-21T22:11:12.816Z,38.40
2019-01-21T22:13:42.467Z,39.07
2019-01-21T22:16:12.627Z,38.23
2019-01-21T22:18:42.150Z,38.73
2019-01-21T22:21:11.659Z,38.80
2019-01-21T22:23:41.262Z,39.23
2019-01-21T22:26:10.871Z,40.27
2019-01-21T22:28:41.262Z,39.48
2019-01-21T22:31:10.940Z,39.17
2019-01-21T22:33:40.466Z,38.93
2019-01-21T22:36:09.989Z,38.90
2019-01-21T22:38:39.490Z,38.38
2019-01-21T22:41:09.552Z,39.27
2019-01-21T22:43:39.133Z,38.30
2019-01-21T22:46:08.623Z,38.17
2019-01-21T22:48:38.144Z,38.20
2019-01-21T22:51:07.637Z,39.87
2019-01-21T22:53:37.895Z,37.75
2019-01-21T22:56:07.458Z,39.57
2019-01-21T22:58:36.984Z,38.33
2019-01-21T23:01:38.407Z,39.00
2019-01-21T23:04:08.106Z,37.20
2019-01-21T23:06:37.658Z,38.57
2019-01-21T23:09:08.480Z,37.80
2019-01-21T23:11:38.092Z,39.17
2019-01-21T23:14:07.873Z,38.70
2019-01-21T23:16:37.457Z,36.63
2019-01-21T23:19:07.067Z,37.33
2019-01-21T23:21:36.587Z,39.37
2019-01-21T23:24:06.210Z,40.07
2019-01-21T23:26:35.902Z,38.10
2019-01-21T23:29:05.762Z,36.67
2019-01-21T23:31:35.301Z,38.57
2019-01-21T23:34:04.889Z,38.20
2019-01-21T23:36:34.434Z,37.20
2019-01-21T23:39:06.142Z,37.87
2019-01-21T23:41:35.645Z,38.40
2019-01-21T23:44:05.570Z,39.83
2019-01-21T23:46:35.065Z,41.53
2019-01-21T23:49:04.815Z,41.40
2019-01-21T23:51:34.590Z,40.13
2019-01-21T23:54:04.421Z,39.40
2019-01-21T23:56:33.981Z,38.98
2019-01-21T23:59:04.049Z,40.20
